Time;durP1;ratioP1;P1;durP2;ratioP2;P2;SDS_P1;SDS_P2;PMS_P1;PMS_P2;Temp;Humidity;BMP_temperature;BMP_pressure;BME280_temperature;BME280_humidity;BME280_pressure;Samples;Min_cycle;Max_cycle;Signal;HPM_P1;HPM_P2
2022/04/26 03:37:35;;;;;;;4.90;4.20;;;18.70;99.90;;;;;;4243216;27;20197;-75
2022/04/26 03:39:37;;;;;;;5.38;4.60;;;18.70;99.90;;;;;;4243520;27;20270;-75
2022/04/26 03:41:40;;;;;;;5.05;4.55;;;18.70;99.90;;;;;;4240461;27;20243;-75
2022/04/26 03:43:42;;;;;;;4.60;4.20;;;18.70;99.90;;;;;;4239853;27;20277;-75
2022/04/26 03:45:45;;;;;;;4.85;4.25;;;18.70;99.90;;;;;;4241832;27;20266;-75
2022/04/26 03:47:47;;;;;;;4.45;4.00;;;18.80;99.90;;;;;;4242883;27;20209;-75
2022/04/26 03:49:51;;;;;;;4.63;4.22;;;18.70;99.90;;;;;;4239588;27;20286;-75
2022/04/26 03:51:54;;;;;;;4.88;4.30;;;18.70;99.90;;;;;;4243339;27;20257;-75
2022/04/26 03:53:56;;;;;;;4.70;4.22;;;18.70;99.90;;;;;;4243894;27;20209;-75
2022/04/26 03:55:58;;;;;;;5.57;3.90;;;18.70;99.90;;;;;;4248052;27;20212;-75
2022/04/26 03:58:01;;;;;;;4.20;3.80;;;18.70;99.90;;;;;;4245327;27;20262;-75
2022/04/26 04:00:04;;;;;;;4.70;4.00;;;18.70;99.90;;;;;;4244306;27;20217;-75
2022/04/26 04:02:06;;;;;;;4.28;3.88;;;18.70;99.90;;;;;;4244314;27;20209;-75
2022/04/26 04:04:08;;;;;;;4.40;4.00;;;18.70;99.90;;;;;;4244377;27;20587;-75
2022/04/26 04:06:12;;;;;;;4.25;3.85;;;18.70;99.90;;;;;;4246446;27;20225;-75
2022/04/26 04:08:14;;;;;;;4.50;3.92;;;18.70;99.90;;;;;;4242530;27;20221;-75
2022/04/26 04:10:17;;;;;;;4.97;3.85;;;18.70;99.90;;;;;;4243650;27;20554;-75
2022/04/26 04:12:19;;;;;;;4.78;3.80;;;18.70;99.90;;;;;;4241630;27;20650;-75
2022/04/26 04:14:21;;;;;;;4.20;3.80;;;18.70;99.90;;;;;;4243812;27;20274;-75
2022/04/26 04:16:24;;;;;;;4.13;3.72;;;18.70;99.90;;;;;;4239496;27;20255;-74
2022/04/26 04:20:46;;;;;;;4.72;3.60;;;18.70;99.90;;;;;;4240637;27;20200;-75
2022/04/26 04:22:53;;;;;;;3.83;3.53;;;18.70;99.90;;;;;;4244489;27;20213;-75
2022/04/26 04:24:55;;;;;;;4.88;3.65;;;18.70;99.90;;;;;;4242917;27;20273;-74
2022/04/26 04:26:58;;;;;;;3.65;3.35;;;18.70;99.90;;;;;;4240309;27;20263;-75
2022/04/26 04:29:01;;;;;;;4.15;3.70;;;18.70;99.90;;;;;;4242232;27;20233;-75
2022/04/26 04:31:03;;;;;;;4.18;3.78;;;18.70;99.90;;;;;;4240808;27;20266;-75
2022/04/26 04:33:06;;;;;;;4.00;3.60;;;18.60;99.90;;;;;;4242385;27;20634;-75
2022/04/26 04:35:09;;;;;;;5.85;4.00;;;18.60;99.90;;;;;;4245214;27;20584;-75
2022/04/26 04:37:12;;;;;;;4.97;3.63;;;18.70;99.90;;;;;;4242397;27;20279;-75
2022/04/26 04:39:19;;;;;;;3.78;3.47;;;18.60;99.90;;;;;;4242409;27;20202;-75
2022/04/26 04:41:21;;;;;;;4.35;3.90;;;18.60;99.90;;;;;;4245824;27;20221;-74
2022/04/26 04:43:24;;;;;;;4.10;3.42;;;18.70;99.90;;;;;;4236279;27;20209;-75
2022/04/26 04:45:26;;;;;;;4.07;3.33;;;18.60;99.90;;;;;;4240595;27;20209;-75
2022/04/26 04:47:29;;;;;;;4.35;3.58;;;18.60;99.90;;;;;;4244245;27;20606;-75
2022/04/26 04:49:31;;;;;;;3.88;3.47;;;18.70;99.90;;;;;;4245743;27;20380;-75
2022/04/26 04:51:34;;;;;;;3.85;3.47;;;18.70;99.90;;;;;;4241209;27;20216;-75
2022/04/26 04:53:36;;;;;;;3.60;3.30;;;18.60;99.80;;;;;;4240406;27;21578;-75
2022/04/26 04:55:41;;;;;;;4.25;3.38;;;18.60;99.90;;;;;;4243726;27;20277;-75
2022/04/26 04:57:43;;;;;;;3.83;3.50;;;18.60;99.90;;;;;;4240307;27;20216;-75
2022/04/26 04:59:46;;;;;;;3.55;3.13;;;18.60;99.80;;;;;;4240449;27;20615;-75
2022/04/26 05:01:48;;;;;;;3.42;3.13;;;18.60;99.80;;;;;;4241003;27;20328;-75
2022/04/26 05:03:51;;;;;;;4.75;3.40;;;18.70;99.80;;;;;;4239981;27;20270;-75
2022/04/26 05:05:53;;;;;;;3.30;3.00;;;18.60;99.70;;;;;;4241155;27;20217;-75
2022/04/26 05:07:56;;;;;;;3.90;3.40;;;18.60;99.80;;;;;;4244642;27;20268;-75
2022/04/26 05:09:58;;;;;;;3.97;3.17;;;18.60;99.80;;;;;;4245103;27;20233;-75
2022/04/26 05:12:02;;;;;;;3.78;3.38;;;18.70;99.80;;;;;;4240765;27;20213;-75
2022/04/26 05:14:04;;;;;;;3.70;3.10;;;18.60;99.80;;;;;;4240761;27;20258;-75
2022/04/26 05:16:07;;;;;;;3.45;3.15;;;18.70;99.80;;;;;;4239262;27;20217;-75
2022/04/26 05:18:09;;;;;;;4.80;3.53;;;18.60;99.70;;;;;;4238673;27;20209;-75
2022/04/26 05:20:12;;;;;;;3.17;2.88;;;18.60;99.70;;;;;;4241966;27;20209;-74
2022/04/26 05:22:15;;;;;;;3.25;2.95;;;18.60;99.70;;;;;;4238687;27;20214;-75
2022/04/26 05:26:37;;;;;;;3.35;3.10;;;18.60;99.90;;;;;;4242603;27;20208;-75
2022/04/26 05:28:40;;;;;;;3.42;3.10;;;18.60;99.70;;;;;;4237824;27;20209;-75
2022/04/26 05:30:43;;;;;;;3.35;3.00;;;18.60;99.70;;;;;;4242375;27;20237;-75
2022/04/26 05:32:45;;;;;;;4.40;3.30;;;18.60;99.80;;;;;;4243467;27;20217;-75
2022/04/26 05:34:48;;;;;;;3.50;3.00;;;18.60;99.70;;;;;;4241104;27;20217;-75
2022/04/26 05:36:50;;;;;;;3.35;2.95;;;18.60;99.70;;;;;;4242667;27;20201;-75
2022/04/26 05:38:52;;;;;;;3.63;3.20;;;18.60;99.70;;;;;;4243429;27;20221;-75
2022/04/26 05:40:54;;;;;;;4.18;2.95;;;18.60;99.60;;;;;;4242466;27;20209;-75
2022/04/26 05:42:57;;;;;;;3.50;3.20;;;18.70;99.70;;;;;;4241513;27;20213;-74
2022/04/26 05:45:00;;;;;;;3.35;3.05;;;18.60;99.70;;;;;;4242522;27;20336;-74
2022/04/26 05:47:03;;;;;;;3.55;2.83;;;18.60;99.70;;;;;;4243015;27;20209;-74
2022/04/26 05:49:06;;;;;;;3.35;2.97;;;18.60;99.70;;;;;;4240259;27;20213;-74
2022/04/26 05:51:08;;;;;;;3.70;2.80;;;18.60;99.70;;;;;;4240136;27;20255;-75
2022/04/26 05:53:11;;;;;;;3.10;2.75;;;18.70;99.70;;;;;;4245060;27;20213;-74
2022/04/26 05:55:13;;;;;;;3.53;3.17;;;18.60;99.70;;;;;;4246987;27;20217;-75
2022/04/26 05:57:15;;;;;;;3.67;2.88;;;18.70;99.70;;;;;;4246282;27;20204;-75
2022/04/26 05:59:18;;;;;;;3.22;2.92;;;18.60;99.60;;;;;;4241343;27;20226;-75
2022/04/26 06:01:22;;;;;;;3.05;2.78;;;18.60;99.70;;;;;;4243995;27;20213;-74
2022/04/26 06:03:25;;;;;;;3.70;3.10;;;18.60;99.60;;;;;;4245810;27;20213;-74
2022/04/26 06:05:27;;;;;;;2.90;2.67;;;18.60;99.60;;;;;;4243377;27;20217;-75
2022/04/26 06:07:30;;;;;;;4.45;2.97;;;18.60;99.60;;;;;;4238985;27;20246;-75
2022/04/26 06:09:32;;;;;;;3.38;2.60;;;18.60;99.60;;;;;;4237148;27;20270;-75
2022/04/26 06:11:35;;;;;;;3.55;2.72;;;18.70;99.60;;;;;;4239044;27;20217;-75
2022/04/26 06:13:37;;;;;;;3.10;2.80;;;18.60;99.60;;;;;;4238145;27;20837;-74
2022/04/26 06:15:39;;;;;;;2.97;2.70;;;18.60;99.60;;;;;;4241794;27;20574;-75
2022/04/26 06:17:43;;;;;;;3.97;2.80;;;18.60;99.60;;;;;;4241655;27;20212;-75
2022/04/26 06:19:45;;;;;;;2.50;2.30;;;18.70;99.60;;;;;;4240725;27;20205;-75
2022/04/26 06:21:48;;;;;;;2.58;2.28;;;18.60;99.60;;;;;;4247995;27;20221;-75
2022/04/26 06:23:50;;;;;;;3.15;2.85;;;18.70;99.60;;;;;;4247802;27;20212;-75
2022/04/26 06:25:53;;;;;;;3.35;2.90;;;18.60;99.60;;;;;;4243957;27;20270;-75
2022/04/26 06:27:55;;;;;;;2.97;2.50;;;18.70;99.70;;;;;;4241778;27;20278;-75
2022/04/26 06:29:57;;;;;;;3.00;2.70;;;18.70;99.60;;;;;;4242533;27;20236;-75
2022/04/26 06:32:00;;;;;;;2.80;2.60;;;18.70;99.60;;;;;;4244965;27;20246;-76
2022/04/26 06:34:03;;;;;;;3.45;2.70;;;18.70;99.60;;;;;;4243005;27;20650;-75
2022/04/26 06:36:06;;;;;;;3.38;3.08;;;18.70;99.60;;;;;;4244436;27;20614;-75
2022/04/26 06:38:09;;;;;;;2.90;2.70;;;18.70;99.60;;;;;;4245892;27;20213;-75
2022/04/26 06:40:11;;;;;;;3.55;2.70;;;18.70;99.60;;;;;;4243527;27;20254;-75
2022/04/26 06:42:13;;;;;;;3.97;2.80;;;18.70;99.50;;;;;;4243379;27;20294;-75
2022/04/26 06:44:16;;;;;;;3.33;2.60;;;18.70;99.50;;;;;;4245010;27;20218;-75
2022/04/26 06:46:18;;;;;;;2.95;2.63;;;18.80;99.50;;;;;;4244439;27;20996;-75
2022/04/26 06:48:21;;;;;;;2.83;2.50;;;18.80;99.50;;;;;;4240826;27;20277;-75
2022/04/26 06:50:24;;;;;;;3.30;2.60;;;18.70;99.50;;;;;;4238319;27;20692;-75
2022/04/26 06:52:28;;;;;;;3.08;2.72;;;18.70;99.40;;;;;;4241616;27;20653;-75
2022/04/26 06:54:34;;;;;;;2.58;2.20;;;18.70;99.40;;;;;;4239937;27;20270;-75
2022/04/26 06:56:36;;;;;;;4.55;2.75;;;18.70;99.40;;;;;;4238929;27;20254;-77
2022/04/26 06:58:39;;;;;;;6.80;3.05;;;18.70;99.10;;;;;;4239763;27;20270;-77
2022/04/26 07:00:41;;;;;;;4.38;2.55;;;18.70;99.20;;;;;;4239740;27;20309;-77
2022/04/26 07:02:43;;;;;;;3.13;2.72;;;18.70;99.30;;;;;;4244193;27;20617;-78
2022/04/26 07:04:46;;;;;;;5.30;2.65;;;18.70;99.30;;;;;;4239842;27;20217;-77
2022/04/26 07:06:49;;;;;;;3.45;3.13;;;18.70;99.80;;;;;;4243764;27;20213;-78
2022/04/26 07:08:52;;;;;;;4.05;2.70;;;18.80;99.50;;;;;;4238813;27;20213;-78
2022/04/26 07:10:54;;;;;;;3.25;2.47;;;18.90;99.60;;;;;;4240601;27;20241;-78
2022/04/26 07:12:56;;;;;;;3.08;2.45;;;18.90;99.40;;;;;;4242903;27;20213;-79
2022/04/26 07:14:59;;;;;;;2.92;2.42;;;19.00;99.50;;;;;;4239471;27;20262;-80
2022/04/26 07:17:02;;;;;;;4.30;2.40;;;19.10;99.30;;;;;;4238198;27;20222;-81
2022/04/26 07:19:04;;;;;;;3.55;2.58;;;19.10;99.30;;;;;;4231679;27;20274;-81
2022/04/26 07:21:07;;;;;;;3.47;2.30;;;19.10;99.20;;;;;;4220517;27;20254;-80
2022/04/26 07:23:11;;;;;;;5.38;2.88;;;19.10;99.20;;;;;;4236911;27;20261;-81
2022/04/26 07:25:13;;;;;;;3.88;2.28;;;19.20;99.70;;;;;;4231133;27;20205;-80
2022/04/26 07:27:16;;;;;;;5.03;2.20;;;19.10;99.10;;;;;;4236744;27;20217;-78
2022/04/26 07:29:19;;;;;;;3.60;2.28;;;19.10;99.30;;;;;;4230220;27;20210;-76
2022/04/26 07:31:21;;;;;;;3.63;2.70;;;19.20;99.50;;;;;;4235303;27;20225;-82
2022/04/26 07:35:43;;;;;;;5.30;2.60;;;19.10;99.50;;;;;;4236285;27;20189;-83
2022/04/26 07:37:45;;;;;;;6.20;2.42;;;19.10;99.50;;;;;;4237020;27;20214;-84
2022/04/26 07:39:49;;;;;;;4.57;2.58;;;19.20;99.60;;;;;;4228329;27;20226;-81
2022/04/26 07:41:51;;;;;;;4.90;2.42;;;19.20;99.60;;;;;;4233613;27;20201;-82
2022/04/26 07:43:55;;;;;;;5.72;2.42;;;19.20;99.50;;;;;;4232849;27;20221;-85
2022/04/26 07:45:57;;;;;;;3.88;2.38;;;19.30;99.90;;;;;;4230076;27;20217;-84
2022/04/26 07:48:00;;;;;;;6.32;2.60;;;19.20;99.60;;;;;;4234242;27;20210;-82
2022/04/26 07:50:04;;;;;;;4.25;2.20;;;19.20;99.60;;;;;;4235283;27;20255;-84
2022/04/26 07:52:07;;;;;;;5.80;2.63;;;19.30;99.40;;;;;;4231618;27;20241;-85
2022/04/26 07:54:11;;;;;;;3.60;2.72;;;19.30;99.50;;;;;;4229413;27;20261;-83
2022/04/26 07:56:19;;;;;;;7.72;2.50;;;19.30;99.40;;;;;;4238293;27;20209;-84
2022/04/26 07:58:21;;;;;;;5.45;2.63;;;19.20;99.70;;;;;;4239674;27;20201;-84
2022/04/26 08:00:24;;;;;;;4.53;2.30;;;19.10;99.90;;;;;;4232813;27;20269;-86
2022/04/26 08:02:26;;;;;;;3.53;2.70;;;19.20;99.90;;;;;;4228792;27;20726;-83
2022/04/26 08:04:28;;;;;;;7.03;2.33;;;19.20;99.90;;;;;;4240521;27;20201;-83
2022/04/26 08:06:31;;;;;;;3.72;2.47;;;19.30;99.90;;;;;;4236541;27;20217;-84
2022/04/26 08:08:33;;;;;;;5.47;2.63;;;19.40;99.70;;;;;;4238891;27;20262;-84
2022/04/26 08:10:36;;;;;;;5.07;2.47;;;19.40;99.80;;;;;;4242978;27;20216;-82
2022/04/26 08:12:40;;;;;;;5.60;2.47;;;19.50;99.80;;;;;;4239782;27;20612;-81
2022/04/26 08:14:43;;;;;;;7.78;2.70;;;19.50;99.70;;;;;;4239762;27;20221;-81
2022/04/26 08:16:45;;;;;;;4.30;2.58;;;19.50;99.70;;;;;;4241443;27;20269;-80
2022/04/26 08:18:47;;;;;;;3.05;2.42;;;19.60;99.90;;;;;;4237758;27;20205;-81
2022/04/26 08:20:50;;;;;;;7.85;2.55;;;19.60;99.80;;;;;;4234975;27;20209;-80
2022/04/26 08:22:52;;;;;;;7.47;2.67;;;19.60;99.90;;;;;;4235605;27;20266;-81
2022/04/26 08:27:25;;;;;;;4.78;2.40;;;19.60;99.90;;;;;;4243070;27;20196;-82
2022/04/26 08:29:28;;;;;;;3.88;2.60;;;19.60;99.90;;;;;;4241239;27;20282;-80
2022/04/26 08:31:30;;;;;;;6.57;2.60;;;19.60;99.90;;;;;;4236470;27;20233;-79
2022/04/26 08:33:34;;;;;;;4.03;2.38;;;19.60;99.90;;;;;;4229263;27;20789;-82
2022/04/26 08:35:37;;;;;;;5.28;2.28;;;19.60;99.80;;;;;;4215417;28;20271;-83
2022/04/26 08:37:53;;;;;;;3.20;2.67;;;19.60;99.90;;;;;;4213874;28;20214;-80
2022/04/26 08:39:55;;;;;;;4.43;2.13;;;19.60;99.90;;;;;;4218347;28;20210;-81
2022/04/26 08:41:58;;;;;;;5.03;2.63;;;19.70;99.90;;;;;;4215362;28;20670;-83
2022/04/26 08:44:01;;;;;;;3.05;2.30;;;19.70;99.90;;;;;;4216680;28;20610;-82
2022/04/26 08:46:04;;;;;;;3.83;2.30;;;19.70;99.90;;;;;;4213133;27;20222;-82
2022/04/26 08:52:50;;;;;;;5.85;2.97;;;19.80;99.80;;;;;;4215387;28;20202;-81
2022/04/26 08:54:53;;;;;;;4.63;2.40;;;19.80;99.80;;;;;;4219087;28;20255;-81
2022/04/26 08:56:56;;;;;;;3.67;2.25;;;19.80;99.90;;;;;;4217685;27;20205;-80
2022/04/26 08:58:58;;;;;;;4.43;2.63;;;19.80;99.90;;;;;;4212420;28;20271;-80
2022/04/26 09:01:10;;;;;;;4.85;2.38;;;19.80;99.80;;;;;;4214529;28;20222;-79
2022/04/26 09:03:12;;;;;;;3.92;2.70;;;19.80;99.80;;;;;;4215484;28;20217;-77
2022/04/26 09:05:16;;;;;;;6.55;2.10;;;19.70;99.90;;;;;;4217620;28;20205;-74
2022/04/26 09:07:29;;;;;;;7.43;2.53;;;19.70;99.90;;;;;;4216777;28;20266;-74
2022/04/26 09:09:35;;;;;;;3.65;2.53;;;19.80;99.90;;;;;;4213557;28;20221;-73
2022/04/26 09:11:38;;;;;;;4.82;2.35;;;19.80;99.90;;;;;;4210564;28;20245;-73
2022/04/26 09:13:41;;;;;;;3.30;2.50;;;19.80;99.90;;;;;;4212230;28;20279;-74
2022/04/26 09:15:47;;;;;;;5.53;2.42;;;19.80;99.90;;;;;;4213769;28;20275;-73
2022/04/26 09:17:50;;;;;;;5.05;2.35;;;19.90;99.80;;;;;;4214531;28;20222;-73
2022/04/26 09:19:55;;;;;;;6.47;2.78;;;19.90;99.90;;;;;;4216403;28;20222;-73
2022/04/26 09:22:00;;;;;;;3.13;2.10;;;19.90;99.50;;;;;;4215743;28;20210;-76
2022/04/26 09:24:04;;;;;;;5.00;2.50;;;19.90;99.50;;;;;;4211563;28;20626;-73
2022/04/26 09:26:08;;;;;;;6.25;2.47;;;19.80;99.60;;;;;;4216389;28;20221;-73
2022/04/26 09:28:19;;;;;;;4.32;2.58;;;19.90;99.70;;;;;;4214040;28;20210;-73
2022/04/26 09:30:21;;;;;;;3.75;2.75;;;19.90;99.70;;;;;;4213951;27;20206;-73
2022/04/26 09:32:24;;;;;;;5.55;2.40;;;19.90;99.80;;;;;;4216918;28;20232;-72
2022/04/26 09:34:38;;;;;;;5.78;2.60;;;19.90;99.90;;;;;;4239094;27;20244;-74
2022/04/26 09:36:44;;;;;;;3.90;2.60;;;19.90;99.90;;;;;;4242550;27;20715;-74
2022/04/26 09:38:51;;;;;;;6.25;2.58;;;20.00;99.60;;;;;;4245746;27;20262;-73
2022/04/26 09:41:00;;;;;;;2.45;2.15;;;19.90;99.60;;;;;;4239239;27;20618;-73
2022/04/26 09:43:02;;;;;;;5.07;2.50;;;19.80;99.90;;;;;;4242176;27;20254;-72
2022/04/26 09:45:06;;;;;;;7.78;2.20;;;19.90;99.70;;;;;;4241511;27;20225;-72
2022/04/26 09:47:09;;;;;;;6.32;2.28;;;19.90;99.90;;;;;;4237441;27;20262;-73
2022/04/26 09:49:14;;;;;;;4.45;2.50;;;19.80;99.90;;;;;;4236281;27;20229;-72
2022/04/26 09:51:17;;;;;;;6.32;2.13;;;19.80;99.90;;;;;;4236762;27;20209;-72
2022/04/26 09:53:20;;;;;;;4.40;2.30;;;19.90;99.90;;;;;;4239797;27;20214;-73
2022/04/26 09:55:22;;;;;;;4.93;2.55;;;19.90;99.90;;;;;;4240235;27;20258;-72
2022/04/26 09:57:25;;;;;;;3.90;2.42;;;19.90;99.90;;;;;;4239567;27;20234;-73
2022/04/26 09:59:28;;;;;;;3.25;2.40;;;19.90;99.90;;;;;;4237632;27;20889;-73
2022/04/26 10:01:33;;;;;;;4.68;2.70;;;19.90;99.90;;;;;;4231536;27;20265;-73
2022/04/26 10:03:37;;;;;;;4.00;2.25;;;20.00;99.90;;;;;;4235476;27;20261;-74
2022/04/26 10:05:45;;;;;;;2.78;2.28;;;20.00;99.90;;;;;;4234477;27;20266;-73
2022/04/26 10:07:51;;;;;;;5.18;2.30;;;20.00;99.90;;;;;;4240770;27;20223;-73
2022/04/26 10:09:54;;;;;;;3.70;2.20;;;20.00;99.80;;;;;;4238467;27;20266;-73
2022/04/26 10:11:58;;;;;;;4.50;2.30;;;20.00;99.80;;;;;;4239308;27;20917;-73
2022/04/26 10:14:03;;;;;;;3.65;2.33;;;20.00;99.80;;;;;;4240171;27;20238;-73
2022/04/26 10:16:08;;;;;;;4.05;2.35;;;20.00;99.90;;;;;;4237538;27;20225;-74
2022/04/26 10:18:27;;;;;;;3.72;2.30;;;20.00;99.90;;;;;;4242921;27;20217;-74
2022/04/26 10:20:42;;;;;;;3.72;2.70;;;20.10;99.90;;;;;;4229955;27;20209;-73
2022/04/26 10:22:59;;;;;;;3.55;2.47;;;20.00;99.70;;;;;;4230185;27;20217;-73
2022/04/26 10:25:21;;;;;;;14.30;2.92;;;20.00;99.80;;;;;;4239266;27;20209;-73
2022/04/26 10:27:24;;;;;;;17.45;3.65;;;20.00;99.90;;;;;;4235693;27;20273;-73
2022/04/26 10:29:26;;;;;;;8.98;3.13;;;20.10;99.90;;;;;;4240866;27;20918;-73
2022/04/26 10:31:36;;;;;;;5.40;2.45;;;20.00;99.90;;;;;;4233175;27;20279;-73
2022/04/26 10:33:40;;;;;;;5.80;2.38;;;20.00;99.90;;;;;;4226169;27;20278;-74
2022/04/26 10:35:43;;;;;;;5.07;2.17;;;19.90;99.90;;;;;;4223897;28;20580;-74
2022/04/26 10:37:45;;;;;;;3.97;2.28;;;20.00;99.90;;;;;;4216894;28;20218;-73
2022/04/26 10:40:00;;;;;;;3.47;2.10;;;20.00;99.90;;;;;;4219640;28;20218;-73
2022/04/26 10:42:29;;;;;;;3.30;2.42;;;20.00;99.90;;;;;;4223789;28;20638;-72
2022/04/26 10:44:56;;;;;;;4.38;2.47;;;20.00;99.90;;;;;;4223342;28;20214;-75
2022/04/26 10:47:22;;;;;;;3.35;2.40;;;20.00;99.90;;;;;;4224876;28;20604;-72
2022/04/26 10:49:45;;;;;;;3.80;2.25;;;20.00;99.90;;;;;;4220543;28;20275;-72
2022/04/26 10:51:47;;;;;;;3.30;2.00;;;20.00;99.90;;;;;;4223223;28;20218;-74
2022/04/26 10:53:50;;;;;;;6.30;2.70;;;20.10;99.90;;;;;;4217117;28;20266;-73
2022/04/26 10:56:02;;;;;;;7.57;2.60;;;19.90;99.90;;;;;;4218628;28;20271;-73
2022/04/26 10:58:05;;;;;;;3.15;2.20;;;19.90;99.90;;;;;;4219536;28;23114;-73
2022/04/26 11:00:09;;;;;;;3.78;2.40;;;20.00;99.90;;;;;;4216778;28;20719;-80
2022/04/26 11:02:14;;;;;;;4.40;2.50;;;20.00;99.90;;;;;;4212853;28;20621;-79
2022/04/26 11:04:46;;;;;;;3.75;2.38;;;20.00;99.70;;;;;;4221193;28;20677;-80
2022/04/26 11:06:49;;;;;;;4.47;2.58;;;20.00;99.80;;;;;;4214230;28;20210;-79
2022/04/26 11:09:06;;;;;;;6.93;2.40;;;19.90;99.70;;;;;;4218117;28;20214;-78
2022/04/26 11:11:11;;;;;;;3.63;2.08;;;19.90;99.90;;;;;;4217823;28;20267;-77
2022/04/26 11:13:20;;;;;;;4.97;2.45;;;19.90;99.90;;;;;;4213455;28;20237;-77
2022/04/26 11:15:24;;;;;;;6.35;2.97;;;19.90;99.10;;;;;;4211494;28;20263;-76
2022/04/26 11:17:29;;;;;;;5.07;2.65;;;19.80;97.70;;;;;;4219338;28;20260;-76
2022/04/26 11:19:32;;;;;;;4.80;2.53;;;19.80;97.30;;;;;;4221831;28;20271;-77
2022/04/26 11:21:34;;;;;;;4.53;2.50;;;19.80;96.80;;;;;;4208108;28;20218;-77
2022/04/26 11:28:28;;;;;;;3.85;2.72;;;19.70;94.90;;;;;;4226085;27;20213;-77
2022/04/26 11:30:33;;;;;;;9.68;2.70;;;19.70;94.90;;;;;;4218392;27;20854;-77
2022/04/26 11:32:38;;;;;;;4.65;2.42;;;19.70;94.60;;;;;;4218397;27;20246;-77
2022/04/26 11:34:47;;;;;;;4.53;2.65;;;19.70;94.80;;;;;;4237145;27;20232;-77
2022/04/26 11:36:50;;;;;;;5.43;2.83;;;19.70;94.70;;;;;;4230385;27;20217;-78
2022/04/26 11:38:57;;;;;;;5.40;2.25;;;19.70;95.40;;;;;;4240726;27;20216;-78
2022/04/26 11:41:01;;;;;;;3.08;2.05;;;19.70;95.70;;;;;;4232655;27;20278;-78
2022/04/26 11:43:10;;;;;;;6.50;2.45;;;19.70;95.40;;;;;;4232689;27;20214;-78
2022/04/26 11:45:14;;;;;;;4.88;2.45;;;19.70;95.20;;;;;;4229036;27;20281;-78
2022/04/26 11:47:16;;;;;;;4.10;2.50;;;19.60;95.60;;;;;;4229029;27;20262;-79
2022/04/26 11:49:18;;;;;;;3.28;2.25;;;19.60;96.00;;;;;;4231307;27;20657;-80
2022/04/26 11:51:21;;;;;;;3.58;2.08;;;19.70;96.10;;;;;;4227839;27;21643;-83
2022/04/26 11:53:24;;;;;;;5.30;2.15;;;19.60;96.50;;;;;;4233247;27;20287;-78
2022/04/26 11:55:29;;;;;;;4.57;2.38;;;19.60;97.00;;;;;;4238456;27;20217;-80
2022/04/26 11:57:31;;;;;;;2.38;2.08;;;19.80;97.20;;;;;;4231619;27;20730;-80
2022/04/26 11:59:35;;;;;;;2.78;2.22;;;19.90;97.30;;;;;;4232299;27;20224;-78
2022/04/26 12:01:39;;;;;;;4.03;2.05;;;19.90;97.00;;;;;;4231976;27;20257;-78
2022/04/26 12:03:47;;;;;;;3.65;2.22;;;20.00;97.00;;;;;;4234724;27;20274;-79
2022/04/26 12:05:53;;;;;;;3.55;2.25;;;20.00;97.10;;;;;;4233868;27;20306;-78
2022/04/26 12:07:56;;;;;;;8.32;2.40;;;20.00;96.50;;;;;;4232389;27;20213;-79
2022/04/26 12:09:59;;;;;;;4.32;2.35;;;20.00;96.40;;;;;;4233838;27;20217;-77
2022/04/26 12:12:03;;;;;;;3.42;2.03;;;20.10;96.50;;;;;;4238555;27;20250;-76
2022/04/26 12:14:07;;;;;;;2.30;1.83;;;20.10;96.80;;;;;;4238005;27;20309;-76
2022/04/26 12:16:18;;;;;;;3.90;2.10;;;20.10;96.70;;;;;;4237896;27;21506;-76
2022/04/26 12:18:22;;;;;;;7.20;2.28;;;20.10;96.60;;;;;;4236036;27;20221;-77
2022/04/26 12:20:24;;;;;;;5.35;2.00;;;20.10;96.60;;;;;;4227658;27;20212;-77
2022/04/26 12:22:37;;;;;;;5.32;2.42;;;20.10;97.00;;;;;;4228653;27;20273;-74
2022/04/26 12:24:51;;;;;;;5.00;2.40;;;20.10;96.30;;;;;;4230869;27;20258;-75
2022/04/26 12:26:57;;;;;;;4.75;2.00;;;20.20;96.20;;;;;;4233470;27;20269;-75
2022/04/26 12:29:00;;;;;;;3.75;2.33;;;20.30;96.20;;;;;;4238612;27;20213;-74
2022/04/26 12:31:02;;;;;;;4.32;2.10;;;20.30;96.10;;;;;;4230873;27;20320;-75
2022/04/26 12:33:06;;;;;;;4.80;2.00;;;20.10;96.40;;;;;;4231143;27;20237;-74
2022/04/26 12:35:11;;;;;;;4.20;2.22;;;20.30;96.70;;;;;;4231477;27;20221;-75
2022/04/26 12:37:20;;;;;;;11.05;2.50;;;20.30;96.70;;;;;;4232486;27;20619;-74
2022/04/26 12:39:23;;;;;;;4.53;2.53;;;20.30;96.20;;;;;;4231135;27;20258;-74
2022/04/26 12:41:26;;;;;;;5.60;2.33;;;20.30;96.50;;;;;;4212419;28;20598;-75
2022/04/26 12:43:30;;;;;;;8.27;2.45;;;20.40;96.50;;;;;;4222806;27;22829;-75
2022/04/26 12:45:33;;;;;;;4.13;2.25;;;20.40;96.60;;;;;;4221610;27;20232;-74
2022/04/26 12:52:32;;;;;;;2.92;2.33;;;20.50;96.60;;;;;;4228658;27;20213;-74
2022/04/26 12:54:37;;;;;;;5.63;2.53;;;20.50;96.80;;;;;;4230817;27;20233;-73
2022/04/26 12:56:40;;;;;;;4.28;2.20;;;20.50;96.70;;;;;;4230580;27;20217;-73
2022/04/26 12:58:44;;;;;;;3.90;2.20;;;20.60;96.90;;;;;;4231461;27;20227;-76
2022/04/26 13:00:47;;;;;;;3.75;2.25;;;20.60;96.90;;;;;;4222776;27;20205;-74
2022/04/26 13:02:51;;;;;;;5.10;2.38;;;20.60;97.00;;;;;;4225345;27;20640;-74
2022/04/26 13:04:53;;;;;;;6.32;2.60;;;20.60;96.70;;;;;;4230239;27;20201;-75
2022/04/26 13:06:56;;;;;;;5.22;2.45;;;20.70;96.60;;;;;;4229230;27;20615;-75
2022/04/26 13:08:59;;;;;;;4.90;2.33;;;20.70;96.60;;;;;;4237922;27;20269;-75
2022/04/26 13:11:01;;;;;;;4.75;2.40;;;20.70;96.80;;;;;;4228533;27;20524;-75
2022/04/26 13:13:05;;;;;;;8.05;2.60;;;20.80;97.00;;;;;;4232788;27;20213;-75
2022/04/26 13:15:09;;;;;;;3.75;2.30;;;20.70;97.10;;;;;;4235098;27;21595;-76
2022/04/26 13:17:11;;;;;;;3.40;1.90;;;20.80;97.30;;;;;;4228167;27;20217;-76
2022/04/26 13:19:13;;;;;;;3.70;1.95;;;20.80;96.90;;;;;;4235421;27;20217;-75
2022/04/26 13:21:16;;;;;;;3.55;2.20;;;20.80;96.90;;;;;;4233108;27;20213;-75
2022/04/26 13:23:19;;;;;;;5.03;2.53;;;20.80;97.10;;;;;;4236180;27;20274;-74
2022/04/26 13:25:23;;;;;;;5.22;2.58;;;20.90;97.20;;;;;;4232638;28;20221;-75
2022/04/26 13:27:25;;;;;;;3.65;2.80;;;20.90;97.30;;;;;;4231024;28;20217;-75
2022/04/26 13:29:29;;;;;;;4.53;2.20;;;20.90;97.20;;;;;;4228498;28;20229;-75
2022/04/26 13:31:31;;;;;;;4.55;2.35;;;20.90;97.30;;;;;;4229738;28;20278;-75
2022/04/26 13:33:34;;;;;;;11.75;2.67;;;20.90;97.30;;;;;;4233418;27;20755;-74
2022/04/26 13:35:37;;;;;;;2.97;2.47;;;21.00;97.20;;;;;;4225735;28;20222;-76
2022/04/26 13:37:40;;;;;;;3.65;2.10;;;21.00;97.30;;;;;;4225333;28;20210;-76
2022/04/26 13:39:45;;;;;;;3.75;2.20;;;21.00;97.40;;;;;;4230292;27;20229;-75
2022/04/26 13:41:51;;;;;;;8.27;2.50;;;21.10;97.40;;;;;;4230198;27;20213;-74
2022/04/26 13:43:53;;;;;;;4.65;2.30;;;21.00;97.20;;;;;;4230379;28;20273;-75
2022/04/26 13:45:55;;;;;;;2.97;2.25;;;21.00;97.70;;;;;;4221563;28;20265;-74
2022/04/26 13:47:57;;;;;;;7.80;2.70;;;21.00;97.70;;;;;;4226116;28;20209;-72
2022/04/26 13:50:00;;;;;;;4.32;2.30;;;21.10;97.90;;;;;;4228390;28;20218;-72
2022/04/26 13:52:02;;;;;;;4.88;2.70;;;21.20;97.80;;;;;;4221575;28;20651;-74
2022/04/26 13:54:05;;;;;;;4.70;2.45;;;21.20;97.30;;;;;;4230713;28;20278;-74
2022/04/26 13:56:09;;;;;;;5.85;2.53;;;21.20;97.50;;;;;;4229651;27;20615;-73
2022/04/26 13:58:12;;;;;;;3.65;2.10;;;21.10;97.60;;;;;;4230958;28;20218;-74
2022/04/26 14:00:16;;;;;;;3.15;2.38;;;21.20;97.60;;;;;;4226663;28;20225;-73
2022/04/26 14:02:19;;;;;;;5.90;2.40;;;21.20;97.60;;;;;;4217699;27;20218;-73
2022/04/26 14:04:22;;;;;;;5.63;2.45;;;21.20;97.60;;;;;;4233539;28;20233;-72
2022/04/26 14:06:25;;;;;;;5.55;2.55;;;21.20;97.10;;;;;;4229835;28;20262;-73
2022/04/26 14:08:27;;;;;;;4.68;2.40;;;21.20;97.80;;;;;;4229930;28;20266;-73
2022/04/26 14:10:30;;;;;;;4.65;2.10;;;21.00;97.60;;;;;;4225865;27;20225;-76
2022/04/26 14:12:33;;;;;;;5.85;2.45;;;21.00;97.70;;;;;;4229699;27;20209;-73
2022/04/26 14:21:49;;;;;;;5.25;1.92;;;21.10;97.70;;;;;;4230525;27;20194;-73
2022/04/26 14:23:51;;;;;;;3.65;2.25;;;21.00;97.50;;;;;;4239801;27;21685;-73
2022/04/26 14:25:53;;;;;;;3.80;2.30;;;20.90;97.50;;;;;;4231339;27;20221;-73
2022/04/26 14:27:56;;;;;;;4.95;2.45;;;20.90;97.20;;;;;;4230877;27;20247;-73
2022/04/26 14:30:00;;;;;;;4.63;2.20;;;20.90;97.50;;;;;;4232992;27;20283;-72
2022/04/26 14:32:03;;;;;;;5.03;2.50;;;20.80;96.90;;;;;;4233607;27;20266;-73
2022/04/26 14:34:05;;;;;;;4.55;2.20;;;20.60;96.60;;;;;;4233268;27;20286;-72
2022/04/26 14:36:07;;;;;;;4.78;2.53;;;20.70;96.90;;;;;;4230118;27;20246;-74
2022/04/26 14:38:10;;;;;;;3.88;2.72;;;20.70;96.70;;;;;;4230416;27;20218;-73
2022/04/26 14:40:12;;;;;;;6.95;2.30;;;20.80;97.00;;;;;;4228166;27;21009;-73
2022/04/26 14:42:15;;;;;;;3.95;2.50;;;20.80;96.40;;;;;;4231354;27;20267;-72
2022/04/26 14:44:17;;;;;;;5.50;2.33;;;20.80;95.60;;;;;;4223467;27;20291;-72
2022/04/26 14:46:36;;;;;;;4.78;2.33;;;20.80;96.20;;;;;;4221794;27;20640;-76
2022/04/26 14:48:39;;;;;;;7.05;2.70;;;20.70;95.80;;;;;;4229010;27;20220;-76
2022/04/26 14:50:41;;;;;;;6.80;2.47;;;20.70;95.60;;;;;;4231070;27;20213;-75
2022/04/26 14:52:44;;;;;;;4.78;2.60;;;20.70;95.40;;;;;;4233089;27;20275;-75